sensor_id;sensor_type;location;lat;lon;timestamp;temperature;humidity
3727;DHT22;1879;45.876;12.300;2024-02-28T00:02:24;12.60;97.00
3727;DHT22;1879;45.876;12.300;2024-02-28T00:04:52;12.60;91.90
3727;DHT22;1879;45.876;12.300;2024-02-28T00:07:20;12.60;88.60
3727;DHT22;1879;45.876;12.300;2024-02-28T00:09:47;12.60;79.60
3727;DHT22;1879;45.876;12.300;2024-02-28T00:12:14;12.60;93.10
3727;DHT22;1879;45.876;12.300;2024-02-28T00:14:41;12.60;95.50
3727;DHT22;1879;45.876;12.300;2024-02-28T00:17:08;12.60;92.50
3727;DHT22;1879;45.876;12.300;2024-02-28T00:19:35;12.60;93.70
3727;DHT22;1879;45.876;12.300;2024-02-28T00:22:02;12.60;94.20
3727;DHT22;1879;45.876;12.300;2024-02-28T00:24:30;12.60;97.90
3727;DHT22;1879;45.876;12.300;2024-02-28T00:26:57;12.60;93.30
3727;DHT22;1879;45.876;12.300;2024-02-28T00:29:24;12.70;97.80
3727;DHT22;1879;45.876;12.300;2024-02-28T00:31:51;12.70;94.70
3727;DHT22;1879;45.876;12.300;2024-02-28T00:34:18;12.70;99.90
3727;DHT22;1879;45.876;12.300;2024-02-28T00:36:44;12.70;99.90
3727;DHT22;1879;45.876;12.300;2024-02-28T00:39:11;12.70;99.90
3727;DHT22;1879;45.876;12.300;2024-02-28T00:41:40;12.70;99.90
3727;DHT22;1879;45.876;12.300;2024-02-28T00:44:07;12.70;99.90
3727;DHT22;1879;45.876;12.300;2024-02-28T00:46:34;12.70;99.90
3727;DHT22;1879;45.876;12.300;2024-02-28T00:49:01;12.70;99.90
3727;DHT22;1879;45.876;12.300;2024-02-28T00:51:28;12.70;99.90
3727;DHT22;1879;45.876;12.300;2024-02-28T00:53:55;12.70;99.90
3727;DHT22;1879;45.876;12.300;2024-02-28T00:56:22;12.70;99.90
3727;DHT22;1879;45.876;12.300;2024-02-28T00:58:51;12.70;99.90
3727;DHT22;1879;45.876;12.300;2024-02-28T01:01:18;12.70;99.90
3727;DHT22;1879;45.876;12.300;2024-02-28T01:03:45;12.70;99.90
3727;DHT22;1879;45.876;12.300;2024-02-28T01:06:12;12.70;99.90
3727;DHT22;1879;45.876;12.300;2024-02-28T01:08:39;12.80;99.90
3727;DHT22;1879;45.876;12.300;2024-02-28T01:11:05;12.80;98.20
3727;DHT22;1879;45.876;12.300;2024-02-28T01:13:32;12.80;90.20
3727;DHT22;1879;45.876;12.300;2024-02-28T01:16:01;12.70;91.20
3727;DHT22;1879;45.876;12.300;2024-02-28T01:18:28;12.80;88.60
3727;DHT22;1879;45.876;12.300;2024-02-28T01:20:56;12.80;74.60
3727;DHT22;1879;45.876;12.300;2024-02-28T01:23:23;12.90;66.00
3727;DHT22;1879;45.876;12.300;2024-02-28T01:25:50;12.90;63.20
3727;DHT22;1879;45.876;12.300;2024-02-28T01:28:17;12.80;57.00
3727;DHT22;1879;45.876;12.300;2024-02-28T01:30:44;12.80;45.00
3727;DHT22;1879;45.876;12.300;2024-02-28T01:33:12;12.80;43.40
3727;DHT22;1879;45.876;12.300;2024-02-28T01:35:40;12.80;32.90
3727;DHT22;1879;45.876;12.300;2024-02-28T01:38:06;12.80;38.50
3727;DHT22;1879;45.876;12.300;2024-02-28T01:40:33;12.80;44.70
3727;DHT22;1879;45.876;12.300;2024-02-28T01:43:03;12.80;51.70
3727;DHT22;1879;45.876;12.300;2024-02-28T01:45:30;12.80;36.40
3727;DHT22;1879;45.876;12.300;2024-02-28T01:47:57;12.70;50.30
3727;DHT22;1879;45.876;12.300;2024-02-28T01:50:26;12.60;48.90
3727;DHT22;1879;45.876;12.300;2024-02-28T01:52:53;12.60;76.10
3727;DHT22;1879;45.876;12.300;2024-02-28T01:55:21;12.60;60.20
3727;DHT22;1879;45.876;12.300;2024-02-28T01:57:48;12.60;58.70
3727;DHT22;1879;45.876;12.300;2024-02-28T02:00:15;12.60;56.50
3727;DHT22;1879;45.876;12.300;2024-02-28T02:02:44;12.60;68.40
3727;DHT22;1879;45.876;12.300;2024-02-28T02:05:11;12.60;95.50
3727;DHT22;1879;45.876;12.300;2024-02-28T02:07:39;12.60;95.60
3727;DHT22;1879;45.876;12.300;2024-02-28T02:10:07;12.60;78.60
3727;DHT22;1879;45.876;12.300;2024-02-28T02:12:37;12.50;77.10
3727;DHT22;1879;45.876;12.300;2024-02-28T02:15:05;12.50;83.80
3727;DHT22;1879;45.876;12.300;2024-02-28T02:17:32;12.50;90.00
3727;DHT22;1879;45.876;12.300;2024-02-28T02:19:59;12.40;91.30
3727;DHT22;1879;45.876;12.300;2024-02-28T02:24:59;12.40;79.80
3727;DHT22;1879;45.876;12.300;2024-02-28T02:27:28;12.40;71.40
3727;DHT22;1879;45.876;12.300;2024-02-28T02:29:55;12.50;55.20
3727;DHT22;1879;45.876;12.300;2024-02-28T02:32:22;12.50;48.10
3727;DHT22;1879;45.876;12.300;2024-02-28T02:34:49;12.50;51.20
3727;DHT22;1879;45.876;12.300;2024-02-28T02:37:16;12.60;35.60
3727;DHT22;1879;45.876;12.300;2024-02-28T02:39:43;12.60;30.70
3727;DHT22;1879;45.876;12.300;2024-02-28T02:42:11;12.60;39.80
3727;DHT22;1879;45.876;12.300;2024-02-28T02:44:40;12.60;46.10
3727;DHT22;1879;45.876;12.300;2024-02-28T02:47:07;12.60;46.90
3727;DHT22;1879;45.876;12.300;2024-02-28T02:49:34;12.60;63.50
3727;DHT22;1879;45.876;12.300;2024-02-28T02:52:01;12.60;55.90
3727;DHT22;1879;45.876;12.300;2024-02-28T02:54:28;12.70;30.00
3727;DHT22;1879;45.876;12.300;2024-02-28T02:56:55;12.60;27.60
3727;DHT22;1879;45.876;12.300;2024-02-28T02:59:23;12.70;27.80
3727;DHT22;1879;45.876;12.300;2024-02-28T03:01:50;12.70;28.00
3727;DHT22;1879;45.876;12.300;2024-02-28T03:04:17;12.70;23.00
3727;DHT22;1879;45.876;12.300;2024-02-28T03:06:44;12.80;29.80
3727;DHT22;1879;45.876;12.300;2024-02-28T03:09:11;12.70;21.20
3727;DHT22;1879;45.876;12.300;2024-02-28T03:11:38;12.70;68.00
3727;DHT22;1879;45.876;12.300;2024-02-28T03:14:05;12.60;99.10
3727;DHT22;1879;45.876;12.300;2024-02-28T03:16:33;12.60;97.70
3727;DHT22;1879;45.876;12.300;2024-02-28T03:19:03;12.60;99.90
3727;DHT22;1879;45.876;12.300;2024-02-28T03:21:30;12.60;99.90
3727;DHT22;1879;45.876;12.300;2024-02-28T03:23:57;12.50;99.90
3727;DHT22;1879;45.876;12.300;2024-02-28T03:26:24;12.50;99.90
3727;DHT22;1879;45.876;12.300;2024-02-28T03:28:51;12.50;99.90
3727;DHT22;1879;45.876;12.300;2024-02-28T03:31:18;12.40;99.90
3727;DHT22;1879;45.876;12.300;2024-02-28T03:33:46;12.40;99.90
3727;DHT22;1879;45.876;12.300;2024-02-28T03:36:13;12.30;99.90
3727;DHT22;1879;45.876;12.300;2024-02-28T03:38:40;12.30;99.90
3727;DHT22;1879;45.876;12.300;2024-02-28T03:41:07;12.40;99.90
3727;DHT22;1879;45.876;12.300;2024-02-28T03:43:34;12.40;99.90
3727;DHT22;1879;45.876;12.300;2024-02-28T03:46:02;12.40;99.90
3727;DHT22;1879;45.876;12.300;2024-02-28T03:48:28;12.40;99.90
3727;DHT22;1879;45.876;12.300;2024-02-28T03:50:57;12.50;99.90
3727;DHT22;1879;45.876;12.300;2024-02-28T03:53:24;12.50;99.90
3727;DHT22;1879;45.876;12.300;2024-02-28T03:55:51;12.50;99.90
3727;DHT22;1879;45.876;12.300;2024-02-28T03:58:17;12.50;99.90
3727;DHT22;1879;45.876;12.300;2024-02-28T04:00:44;12.50;99.90
3727;DHT22;1879;45.876;12.300;2024-02-28T04:03:11;12.50;99.90
3727;DHT22;1879;45.876;12.300;2024-02-28T04:05:39;12.50;99.90
3727;DHT22;1879;45.876;12.300;2024-02-28T04:08:07;12.50;99.90
3727;DHT22;1879;45.876;12.300;2024-02-28T04:10:34;12.50;99.90
3727;DHT22;1879;45.876;12.300;2024-02-28T04:13:01;12.50;99.90
3727;DHT22;1879;45.876;12.300;2024-02-28T04:15:29;12.50;99.90
3727;DHT22;1879;45.876;12.300;2024-02-28T04:17:56;12.50;99.90
3727;DHT22;1879;45.876;12.300;2024-02-28T04:20:23;12.50;99.90
3727;DHT22;1879;45.876;12.300;2024-02-28T04:22:50;12.50;99.90
3727;DHT22;1879;45.876;12.300;2024-02-28T04:25:19;12.50;99.90
3727;DHT22;1879;45.876;12.300;2024-02-28T04:27:46;12.40;99.90
3727;DHT22;1879;45.876;12.300;2024-02-28T04:30:13;12.50;99.90
3727;DHT22;1879;45.876;12.300;2024-02-28T04:32:40;12.40;99.90
3727;DHT22;1879;45.876;12.300;2024-02-28T04:35:07;12.40;99.90
3727;DHT22;1879;45.876;12.300;2024-02-28T04:37:34;12.40;99.90
3727;DHT22;1879;45.876;12.300;2024-02-28T04:40:02;12.40;99.90
3727;DHT22;1879;45.876;12.300;2024-02-28T04:42:30;12.30;99.90
3727;DHT22;1879;45.876;12.300;2024-02-28T04:44:57;12.20;99.90
3727;DHT22;1879;45.876;12.300;2024-02-28T04:47:24;12.10;99.90
3727;DHT22;1879;45.876;12.300;2024-02-28T04:49:51;12.10;99.90
3727;DHT22;1879;45.876;12.300;2024-02-28T04:52:17;12.10;99.90
3727;DHT22;1879;45.876;12.300;2024-02-28T04:54:44;12.10;99.90
3727;DHT22;1879;45.876;12.300;2024-02-28T04:57:11;12.10;99.90
3727;DHT22;1879;45.876;12.300;2024-02-28T04:59:41;12.10;99.90
3727;DHT22;1879;45.876;12.300;2024-02-28T05:02:08;12.20;99.90
3727;DHT22;1879;45.876;12.300;2024-02-28T05:04:35;12.20;99.90
3727;DHT22;1879;45.876;12.300;2024-02-28T05:07:02;12.20;99.90
3727;DHT22;1879;45.876;12.300;2024-02-28T05:09:29;12.10;99.90
3727;DHT22;1879;45.876;12.300;2024-02-28T05:11:56;12.10;99.90
3727;DHT22;1879;45.876;12.300;2024-02-28T05:14:24;12.10;99.90
3727;DHT22;1879;45.876;12.300;2024-02-28T05:16:52;12.20;99.90
3727;DHT22;1879;45.876;12.300;2024-02-28T05:19:19;12.20;99.90
3727;DHT22;1879;45.876;12.300;2024-02-28T05:21:46;12.20;99.90
3727;DHT22;1879;45.876;12.300;2024-02-28T05:24:13;12.20;99.90
3727;DHT22;1879;45.876;12.300;2024-02-28T05:26:40;12.20;99.90
3727;DHT22;1879;45.876;12.300;2024-02-28T05:29:07;12.30;99.90
3727;DHT22;1879;45.876;12.300;2024-02-28T05:31:34;12.30;99.90
3727;DHT22;1879;45.876;12.300;2024-02-28T05:34:03;12.40;99.90
3727;DHT22;1879;45.876;12.300;2024-02-28T05:36:31;12.40;99.90
3727;DHT22;1879;45.876;12.300;2024-02-28T05:38:59;12.40;99.90
3727;DHT22;1879;45.876;12.300;2024-02-28T05:41:26;12.40;99.90
3727;DHT22;1879;45.876;12.300;2024-02-28T05:43:54;12.40;99.90
3727;DHT22;1879;45.876;12.300;2024-02-28T05:46:21;12.40;99.90
3727;DHT22;1879;45.876;12.300;2024-02-28T05:48:49;12.30;99.90
3727;DHT22;1879;45.876;12.300;2024-02-28T05:51:17;12.30;99.90
3727;DHT22;1879;45.876;12.300;2024-02-28T05:53:44;12.30;99.90
3727;DHT22;1879;45.876;12.300;2024-02-28T05:56:11;12.30;99.90
3727;DHT22;1879;45.876;12.300;2024-02-28T05:58:40;12.30;99.90
3727;DHT22;1879;45.876;12.300;2024-02-28T06:01:08;12.30;99.90
3727;DHT22;1879;45.876;12.300;2024-02-28T06:03:36;12.20;99.90
3727;DHT22;1879;45.876;12.300;2024-02-28T06:06:03;12.20;99.90
3727;DHT22;1879;45.876;12.300;2024-02-28T06:08:33;12.20;99.90
3727;DHT22;1879;45.876;12.300;2024-02-28T06:11:01;12.20;99.90
3727;DHT22;1879;45.876;12.300;2024-02-28T06:13:28;12.10;99.90
3727;DHT22;1879;45.876;12.300;2024-02-28T06:15:55;12.10;99.90
3727;DHT22;1879;45.876;12.300;2024-02-28T06:18:22;12.00;99.90
3727;DHT22;1879;45.876;12.300;2024-02-28T06:20:52;12.00;99.90
3727;DHT22;1879;45.876;12.300;2024-02-28T06:23:20;12.00;99.90
3727;DHT22;1879;45.876;12.300;2024-02-28T06:25:49;12.00;99.90
3727;DHT22;1879;45.876;12.300;2024-02-28T06:28:16;11.90;99.90
3727;DHT22;1879;45.876;12.300;2024-02-28T06:30:43;11.90;99.90
3727;DHT22;1879;45.876;12.300;2024-02-28T06:33:11;11.90;99.90
3727;DHT22;1879;45.876;12.300;2024-02-28T06:35:38;11.90;99.90
3727;DHT22;1879;45.876;12.300;2024-02-28T06:38:05;11.90;99.90
3727;DHT22;1879;45.876;12.300;2024-02-28T06:40:32;11.90;99.90
3727;DHT22;1879;45.876;12.300;2024-02-28T06:43:01;11.80;99.90
3727;DHT22;1879;45.876;12.300;2024-02-28T06:45:28;11.80;99.90
3727;DHT22;1879;45.876;12.300;2024-02-28T06:47:55;11.90;99.90
3727;DHT22;1879;45.876;12.300;2024-02-28T06:50:22;11.90;99.90
3727;DHT22;1879;45.876;12.300;2024-02-28T06:52:49;12.00;99.90
3727;DHT22;1879;45.876;12.300;2024-02-28T06:55:17;12.00;99.90
3727;DHT22;1879;45.876;12.300;2024-02-28T06:57:44;12.00;99.90
3727;DHT22;1879;45.876;12.300;2024-02-28T07:00:13;11.90;99.90
3727;DHT22;1879;45.876;12.300;2024-02-28T07:02:40;12.00;99.90
3727;DHT22;1879;45.876;12.300;2024-02-28T07:05:07;12.10;99.90
3727;DHT22;1879;45.876;12.300;2024-02-28T07:07:34;12.10;99.90
3727;DHT22;1879;45.876;12.300;2024-02-28T07:10:03;12.10;99.90
3727;DHT22;1879;45.876;12.300;2024-02-28T07:12:31;12.20;99.90
3727;DHT22;1879;45.876;12.300;2024-02-28T07:14:58;12.30;99.90
3727;DHT22;1879;45.876;12.300;2024-02-28T07:17:26;12.30;99.90
3727;DHT22;1879;45.876;12.300;2024-02-28T07:19:53;12.40;99.90
3727;DHT22;1879;45.876;12.300;2024-02-28T07:22:20;12.90;99.90
3727;DHT22;1879;45.876;12.300;2024-02-28T07:24:47;13.10;99.90
3727;DHT22;1879;45.876;12.300;2024-02-28T07:27:14;13.30;99.90
3727;DHT22;1879;45.876;12.300;2024-02-28T07:29:41;13.50;99.90
3727;DHT22;1879;45.876;12.300;2024-02-28T07:32:08;13.90;99.90
3727;DHT22;1879;45.876;12.300;2024-02-28T07:34:36;13.60;99.90
3727;DHT22;1879;45.876;12.300;2024-02-28T07:37:04;13.30;99.90
3727;DHT22;1879;45.876;12.300;2024-02-28T07:39:31;13.00;99.90
3727;DHT22;1879;45.876;12.300;2024-02-28T07:41:58;12.90;99.90
3727;DHT22;1879;45.876;12.300;2024-02-28T07:44:25;12.80;99.90
3727;DHT22;1879;45.876;12.300;2024-02-28T07:46:56;12.80;99.90
3727;DHT22;1879;45.876;12.300;2024-02-28T07:49:23;12.70;99.90
3727;DHT22;1879;45.876;12.300;2024-02-28T07:51:51;12.60;99.90
3727;DHT22;1879;45.876;12.300;2024-02-28T07:54:18;12.40;99.90
3727;DHT22;1879;45.876;12.300;2024-02-28T07:56:45;12.40;99.90
3727;DHT22;1879;45.876;12.300;2024-02-28T07:59:12;12.20;99.90
3727;DHT22;1879;45.876;12.300;2024-02-28T08:01:38;12.20;99.90
3727;DHT22;1879;45.876;12.300;2024-02-28T08:04:05;12.20;99.90
3727;DHT22;1879;45.876;12.300;2024-02-28T08:06:32;12.20;99.90
3727;DHT22;1879;45.876;12.300;2024-02-28T08:09:01;12.30;99.90
3727;DHT22;1879;45.876;12.300;2024-02-28T08:11:29;12.40;99.90
3727;DHT22;1879;45.876;12.300;2024-02-28T08:13:56;12.50;99.90
3727;DHT22;1879;45.876;12.300;2024-02-28T08:16:23;12.50;99.90
3727;DHT22;1879;45.876;12.300;2024-02-28T08:18:50;12.50;99.90
3727;DHT22;1879;45.876;12.300;2024-02-28T08:21:17;12.50;99.90
3727;DHT22;1879;45.876;12.300;2024-02-28T08:23:45;12.50;99.90
3727;DHT22;1879;45.876;12.300;2024-02-28T08:26:14;12.60;99.90
3727;DHT22;1879;45.876;12.300;2024-02-28T08:28:41;12.60;99.90
3727;DHT22;1879;45.876;12.300;2024-02-28T08:31:08;12.70;99.90
3727;DHT22;1879;45.876;12.300;2024-02-28T08:33:35;12.70;99.90
3727;DHT22;1879;45.876;12.300;2024-02-28T08:36:02;12.70;99.90
3727;DHT22;1879;45.876;12.300;2024-02-28T08:38:29;12.70;99.90
3727;DHT22;1879;45.876;12.300;2024-02-28T08:40:56;12.70;99.90
3727;DHT22;1879;45.876;12.300;2024-02-28T08:43:24;12.80;99.90
3727;DHT22;1879;45.876;12.300;2024-02-28T08:45:51;12.80;99.90
3727;DHT22;1879;45.876;12.300;2024-02-28T08:48:19;12.90;99.90
3727;DHT22;1879;45.876;12.300;2024-02-28T08:50:46;12.90;99.90
3727;DHT22;1879;45.876;12.300;2024-02-28T08:53:13;12.90;99.90
3727;DHT22;1879;45.876;12.300;2024-02-28T08:55:40;12.90;99.90
3727;DHT22;1879;45.876;12.300;2024-02-28T08:58:07;12.90;99.90
3727;DHT22;1879;45.876;12.300;2024-02-28T09:00:35;12.90;99.90
3727;DHT22;1879;45.876;12.300;2024-02-28T09:03:04;12.80;99.90
3727;DHT22;1879;45.876;12.300;2024-02-28T09:05:31;12.90;99.90
3727;DHT22;1879;45.876;12.300;2024-02-28T09:07:58;13.00;99.90
3727;DHT22;1879;45.876;12.300;2024-02-28T09:10:25;13.00;99.90
3727;DHT22;1879;45.876;12.300;2024-02-28T09:12:52;13.10;99.90
3727;DHT22;1879;45.876;12.300;2024-02-28T09:15:19;13.20;99.90
3727;DHT22;1879;45.876;12.300;2024-02-28T09:17:47;13.20;99.90
3727;DHT22;1879;45.876;12.300;2024-02-28T09:20:14;13.30;99.90
3727;DHT22;1879;45.876;12.300;2024-02-28T09:22:42;13.30;99.90
3727;DHT22;1879;45.876;12.300;2024-02-28T09:25:09;13.30;99.90
3727;DHT22;1879;45.876;12.300;2024-02-28T09:27:37;13.20;99.90
3727;DHT22;1879;45.876;12.300;2024-02-28T09:30:05;13.20;99.90
3727;DHT22;1879;45.876;12.300;2024-02-28T09:32:32;13.20;99.90
3727;DHT22;1879;45.876;12.300;2024-02-28T09:35:00;13.20;99.90
3727;DHT22;1879;45.876;12.300;2024-02-28T09:37:27;13.20;99.90
3727;DHT22;1879;45.876;12.300;2024-02-28T09:39:54;13.20;99.90
3727;DHT22;1879;45.876;12.300;2024-02-28T09:42:21;13.20;99.90
3727;DHT22;1879;45.876;12.300;2024-02-28T09:44:48;13.20;99.90
3727;DHT22;1879;45.876;12.300;2024-02-28T09:47:15;13.20;99.90
3727;DHT22;1879;45.876;12.300;2024-02-28T09:49:43;13.20;99.90
3727;DHT22;1879;45.876;12.300;2024-02-28T09:52:13;13.20;99.90
3727;DHT22;1879;45.876;12.300;2024-02-28T09:54:41;13.30;99.90
3727;DHT22;1879;45.876;12.300;2024-02-28T09:57:11;13.30;99.90
3727;DHT22;1879;45.876;12.300;2024-02-28T09:59:39;13.30;99.90
3727;DHT22;1879;45.876;12.300;2024-02-28T10:02:09;13.30;99.90
3727;DHT22;1879;45.876;12.300;2024-02-28T10:04:37;13.30;99.90
3727;DHT22;1879;45.876;12.300;2024-02-28T10:07:10;13.40;99.90
3727;DHT22;1879;45.876;12.300;2024-02-28T10:09:40;13.50;99.90
3727;DHT22;1879;45.876;12.300;2024-02-28T10:12:08;13.60;99.90
3727;DHT22;1879;45.876;12.300;2024-02-28T10:14:35;13.70;99.90
3727;DHT22;1879;45.876;12.300;2024-02-28T10:17:03;13.70;99.90
3727;DHT22;1879;45.876;12.300;2024-02-28T10:19:31;13.80;99.90
3727;DHT22;1879;45.876;12.300;2024-02-28T10:21:58;13.90;99.90
3727;DHT22;1879;45.876;12.300;2024-02-28T10:24:25;13.90;99.90
3727;DHT22;1879;45.876;12.300;2024-02-28T10:26:54;14.00;99.90
3727;DHT22;1879;45.876;12.300;2024-02-28T10:29:22;13.90;99.90
3727;DHT22;1879;45.876;12.300;2024-02-28T10:31:50;14.00;99.90
3727;DHT22;1879;45.876;12.300;2024-02-28T10:34:17;14.00;99.90
3727;DHT22;1879;45.876;12.300;2024-02-28T10:36:44;13.90;99.90
3727;DHT22;1879;45.876;12.300;2024-02-28T10:39:12;13.80;99.90
3727;DHT22;1879;45.876;12.300;2024-02-28T10:41:39;13.70;99.90
3727;DHT22;1879;45.876;12.300;2024-02-28T10:44:08;13.70;99.90
3727;DHT22;1879;45.876;12.300;2024-02-28T10:46:37;13.60;99.90
3727;DHT22;1879;45.876;12.300;2024-02-28T10:49:04;13.60;99.90
3727;DHT22;1879;45.876;12.300;2024-02-28T10:51:35;13.60;99.90
3727;DHT22;1879;45.876;12.300;2024-02-28T10:54:10;13.50;99.90
3727;DHT22;1879;45.876;12.300;2024-02-28T10:56:37;13.60;99.90
3727;DHT22;1879;45.876;12.300;2024-02-28T10:59:08;13.60;99.90
3727;DHT22;1879;45.876;12.300;2024-02-28T11:01:36;13.60;99.90
3727;DHT22;1879;45.876;12.300;2024-02-28T11:04:04;13.60;99.90
3727;DHT22;1879;45.876;12.300;2024-02-28T11:06:31;13.70;99.90
3727;DHT22;1879;45.876;12.300;2024-02-28T11:08:59;13.80;99.90
3727;DHT22;1879;45.876;12.300;2024-02-28T11:11:30;13.80;99.90
3727;DHT22;1879;45.876;12.300;2024-02-28T11:13:59;13.90;99.90
3727;DHT22;1879;45.876;12.300;2024-02-28T11:16:29;13.90;99.90
3727;DHT22;1879;45.876;12.300;2024-02-28T11:18:56;14.00;99.90
3727;DHT22;1879;45.876;12.300;2024-02-28T11:21:23;14.10;99.90
3727;DHT22;1879;45.876;12.300;2024-02-28T11:23:53;14.30;99.90
3727;DHT22;1879;45.876;12.300;2024-02-28T11:26:23;14.40;99.90
3727;DHT22;1879;45.876;12.300;2024-02-28T11:28:51;14.50;99.90
3727;DHT22;1879;45.876;12.300;2024-02-28T11:31:17;14.70;99.90
3727;DHT22;1879;45.876;12.300;2024-02-28T11:33:46;14.70;99.90
3727;DHT22;1879;45.876;12.300;2024-02-28T11:36:13;14.60;99.90
3727;DHT22;1879;45.876;12.300;2024-02-28T11:38:40;14.60;99.90
3727;DHT22;1879;45.876;12.300;2024-02-28T11:41:07;14.60;99.90
3727;DHT22;1879;45.876;12.300;2024-02-28T11:43:34;14.60;99.90
3727;DHT22;1879;45.876;12.300;2024-02-28T11:46:01;14.50;99.90
3727;DHT22;1879;45.876;12.300;2024-02-28T11:48:35;14.50;99.90
3727;DHT22;1879;45.876;12.300;2024-02-28T11:51:03;14.50;99.90
3727;DHT22;1879;45.876;12.300;2024-02-28T11:53:30;14.50;99.90
3727;DHT22;1879;45.876;12.300;2024-02-28T11:55:57;14.50;99.90
3727;DHT22;1879;45.876;12.300;2024-02-28T11:58:24;14.50;99.90
3727;DHT22;1879;45.876;12.300;2024-02-28T12:00:52;14.60;99.90
3727;DHT22;1879;45.876;12.300;2024-02-28T12:03:23;14.70;99.90
3727;DHT22;1879;45.876;12.300;2024-02-28T12:05:51;14.80;99.90
3727;DHT22;1879;45.876;12.300;2024-02-28T12:08:19;14.90;99.90
3727;DHT22;1879;45.876;12.300;2024-02-28T12:10:47;14.90;99.90
3727;DHT22;1879;45.876;12.300;2024-02-28T12:13:17;15.10;99.90
3727;DHT22;1879;45.876;12.300;2024-02-28T12:15:44;15.20;99.90
3727;DHT22;1879;45.876;12.300;2024-02-28T12:18:12;15.30;99.90
3727;DHT22;1879;45.876;12.300;2024-02-28T12:20:41;15.50;99.90
3727;DHT22;1879;45.876;12.300;2024-02-28T12:23:07;15.60;99.90
3727;DHT22;1879;45.876;12.300;2024-02-28T12:25:35;15.70;99.90
3727;DHT22;1879;45.876;12.300;2024-02-28T12:28:04;15.80;99.90
3727;DHT22;1879;45.876;12.300;2024-02-28T12:30:40;15.80;99.90
3727;DHT22;1879;45.876;12.300;2024-02-28T12:33:07;15.80;99.90
3727;DHT22;1879;45.876;12.300;2024-02-28T12:35:34;15.80;99.90
3727;DHT22;1879;45.876;12.300;2024-02-28T12:38:02;15.80;99.90
3727;DHT22;1879;45.876;12.300;2024-02-28T12:40:29;15.80;99.90
3727;DHT22;1879;45.876;12.300;2024-02-28T12:42:58;15.70;99.90
3727;DHT22;1879;45.876;12.300;2024-02-28T12:45:24;15.70;99.90
3727;DHT22;1879;45.876;12.300;2024-02-28T12:47:51;15.80;99.90
3727;DHT22;1879;45.876;12.300;2024-02-28T12:50:22;15.80;99.90
3727;DHT22;1879;45.876;12.300;2024-02-28T12:52:50;15.90;99.90
3727;DHT22;1879;45.876;12.300;2024-02-28T12:55:19;16.00;99.90
3727;DHT22;1879;45.876;12.300;2024-02-28T12:57:46;16.00;99.90
3727;DHT22;1879;45.876;12.300;2024-02-28T13:00:16;16.10;99.90
3727;DHT22;1879;45.876;12.300;2024-02-28T13:02:44;16.10;99.90
3727;DHT22;1879;45.876;12.300;2024-02-28T13:05:11;16.20;99.90
3727;DHT22;1879;45.876;12.300;2024-02-28T13:07:39;16.20;99.90
3727;DHT22;1879;45.876;12.300;2024-02-28T13:10:07;16.20;99.90
3727;DHT22;1879;45.876;12.300;2024-02-28T13:12:34;16.20;99.90
3727;DHT22;1879;45.876;12.300;2024-02-28T13:15:01;16.20;99.90
3727;DHT22;1879;45.876;12.300;2024-02-28T13:17:32;16.20;99.90
3727;DHT22;1879;45.876;12.300;2024-02-28T13:19:59;16.20;99.90
3727;DHT22;1879;45.876;12.300;2024-02-28T13:22:26;16.10;99.90
3727;DHT22;1879;45.876;12.300;2024-02-28T13:24:53;16.10;99.90
3727;DHT22;1879;45.876;12.300;2024-02-28T13:27:20;16.10;99.90
3727;DHT22;1879;45.876;12.300;2024-02-28T13:29:47;16.00;99.90
3727;DHT22;1879;45.876;12.300;2024-02-28T13:32:14;16.00;99.90
3727;DHT22;1879;45.876;12.300;2024-02-28T13:34:42;16.00;99.90
3727;DHT22;1879;45.876;12.300;2024-02-28T13:37:09;15.90;99.90
3727;DHT22;1879;45.876;12.300;2024-02-28T13:39:36;15.90;99.90
3727;DHT22;1879;45.876;12.300;2024-02-28T13:42:03;15.90;99.90
3727;DHT22;1879;45.876;12.300;2024-02-28T13:44:32;15.90;99.90
3727;DHT22;1879;45.876;12.300;2024-02-28T13:47:00;15.80;99.90
3727;DHT22;1879;45.876;12.300;2024-02-28T13:49:27;15.80;99.90
3727;DHT22;1879;45.876;12.300;2024-02-28T13:51:55;15.80;99.90
3727;DHT22;1879;45.876;12.300;2024-02-28T13:54:22;15.70;99.90
3727;DHT22;1879;45.876;12.300;2024-02-28T13:56:49;15.60;99.90
3727;DHT22;1879;45.876;12.300;2024-02-28T13:59:16;15.70;99.90
3727;DHT22;1879;45.876;12.300;2024-02-28T14:01:43;15.60;99.90
3727;DHT22;1879;45.876;12.300;2024-02-28T14:04:10;15.60;99.90
3727;DHT22;1879;45.876;12.300;2024-02-28T14:06:37;15.60;99.90
3727;DHT22;1879;45.876;12.300;2024-02-28T14:09:06;15.50;99.90
3727;DHT22;1879;45.876;12.300;2024-02-28T14:11:33;15.50;99.90
3727;DHT22;1879;45.876;12.300;2024-02-28T14:14:00;15.50;99.90
3727;DHT22;1879;45.876;12.300;2024-02-28T14:16:27;15.50;99.90
3727;DHT22;1879;45.876;12.300;2024-02-28T14:18:54;15.50;99.90
3727;DHT22;1879;45.876;12.300;2024-02-28T14:21:21;15.50;99.90
3727;DHT22;1879;45.876;12.300;2024-02-28T14:23:50;15.50;99.90
3727;DHT22;1879;45.876;12.300;2024-02-28T14:26:18;15.60;99.90
3727;DHT22;1879;45.876;12.300;2024-02-28T14:28:45;15.60;99.90
3727;DHT22;1879;45.876;12.300;2024-02-28T14:31:12;15.60;99.90
3727;DHT22;1879;45.876;12.300;2024-02-28T14:33:39;15.70;99.90
3727;DHT22;1879;45.876;12.300;2024-02-28T14:36:06;15.70;99.90
3727;DHT22;1879;45.876;12.300;2024-02-28T14:38:33;15.70;99.90
3727;DHT22;1879;45.876;12.300;2024-02-28T14:41:00;15.70;99.90
3727;DHT22;1879;45.876;12.300;2024-02-28T14:43:30;15.70;99.90
3727;DHT22;1879;45.876;12.300;2024-02-28T14:45:57;15.80;99.90
3727;DHT22;1879;45.876;12.300;2024-02-28T14:48:24;15.80;99.90
3727;DHT22;1879;45.876;12.300;2024-02-28T14:50:50;15.80;99.90
3727;DHT22;1879;45.876;12.300;2024-02-28T14:53:19;15.80;99.90
3727;DHT22;1879;45.876;12.300;2024-02-28T14:55:46;15.90;99.90
3727;DHT22;1879;45.876;12.300;2024-02-28T14:58:17;15.90;99.90
3727;DHT22;1879;45.876;12.300;2024-02-28T15:00:45;15.90;99.90
3727;DHT22;1879;45.876;12.300;2024-02-28T15:03:14;15.90;99.90
3727;DHT22;1879;45.876;12.300;2024-02-28T15:05:41;15.90;99.90
3727;DHT22;1879;45.876;12.300;2024-02-28T15:08:09;15.90;99.90
3727;DHT22;1879;45.876;12.300;2024-02-28T15:10:36;15.90;99.90
3727;DHT22;1879;45.876;12.300;2024-02-28T15:13:03;15.80;99.90
3727;DHT22;1879;45.876;12.300;2024-02-28T15:15:31;15.90;99.90
3727;DHT22;1879;45.876;12.300;2024-02-28T15:18:00;16.00;99.90
3727;DHT22;1879;45.876;12.300;2024-02-28T15:20:27;16.00;99.90
3727;DHT22;1879;45.876;12.300;2024-02-28T15:22:54;16.00;99.90
3727;DHT22;1879;45.876;12.300;2024-02-28T15:25:22;16.00;99.90
3727;DHT22;1879;45.876;12.300;2024-02-28T15:27:48;16.00;99.90
3727;DHT22;1879;45.876;12.300;2024-02-28T15:30:15;16.00;99.90
3727;DHT22;1879;45.876;12.300;2024-02-28T15:32:43;15.90;99.90
3727;DHT22;1879;45.876;12.300;2024-02-28T15:35:12;16.00;99.90
3727;DHT22;1879;45.876;12.300;2024-02-28T15:37:39;15.90;99.90
3727;DHT22;1879;45.876;12.300;2024-02-28T15:40:06;16.00;99.90
3727;DHT22;1879;45.876;12.300;2024-02-28T15:42:34;15.90;99.90
3727;DHT22;1879;45.876;12.300;2024-02-28T15:45:02;15.90;99.90
3727;DHT22;1879;45.876;12.300;2024-02-28T15:47:29;15.90;99.90
3727;DHT22;1879;45.876;12.300;2024-02-28T15:49:55;15.90;99.90